sensor_id;sensor_type;location;lat;lon;timestamp;temperature;humidity
18173;DHT22;9211;48.818;9.312;2023-05-23T00:01:50;19.50;99.90
18173;DHT22;9211;48.818;9.312;2023-05-23T00:04:19;19.50;99.90
18173;DHT22;9211;48.818;9.312;2023-05-23T00:06:46;19.50;99.90
18173;DHT22;9211;48.818;9.312;2023-05-23T00:09:15;19.50;99.90
18173;DHT22;9211;48.818;9.312;2023-05-23T00:11:44;19.40;99.90
18173;DHT22;9211;48.818;9.312;2023-05-23T00:14:11;19.40;99.90
18173;DHT22;9211;48.818;9.312;2023-05-23T00:16:39;19.40;99.90
18173;DHT22;9211;48.818;9.312;2023-05-23T00:19:08;19.30;99.90
18173;DHT22;9211;48.818;9.312;2023-05-23T00:21:35;19.20;99.90
18173;DHT22;9211;48.818;9.312;2023-05-23T00:24:03;19.20;99.90
18173;DHT22;9211;48.818;9.312;2023-05-23T00:26:30;19.20;99.90
18173;DHT22;9211;48.818;9.312;2023-05-23T00:28:59;19.20;99.90
18173;DHT22;9211;48.818;9.312;2023-05-23T00:31:26;19.30;99.90
18173;DHT22;9211;48.818;9.312;2023-05-23T00:33:53;19.20;99.90
18173;DHT22;9211;48.818;9.312;2023-05-23T00:36:20;19.20;99.90
18173;DHT22;9211;48.818;9.312;2023-05-23T00:38:49;19.20;99.90
18173;DHT22;9211;48.818;9.312;2023-05-23T00:41:16;19.10;99.90
18173;DHT22;9211;48.818;9.312;2023-05-23T00:43:44;19.10;99.90
18173;DHT22;9211;48.818;9.312;2023-05-23T00:46:12;19.10;99.90
18173;DHT22;9211;48.818;9.312;2023-05-23T00:48:40;19.00;99.90
18173;DHT22;9211;48.818;9.312;2023-05-23T00:51:07;19.00;99.90
18173;DHT22;9211;48.818;9.312;2023-05-23T00:53:34;19.00;99.90
18173;DHT22;9211;48.818;9.312;2023-05-23T00:56:01;18.90;99.90
18173;DHT22;9211;48.818;9.312;2023-05-23T00:58:29;18.90;99.90
18173;DHT22;9211;48.818;9.312;2023-05-23T01:00:56;18.90;99.90
18173;DHT22;9211;48.818;9.312;2023-05-23T01:03:25;18.80;99.90
18173;DHT22;9211;48.818;9.312;2023-05-23T01:05:53;18.80;99.90
18173;DHT22;9211;48.818;9.312;2023-05-23T01:08:20;18.80;99.90
18173;DHT22;9211;48.818;9.312;2023-05-23T01:11:02;18.90;99.90
18173;DHT22;9211;48.818;9.312;2023-05-23T01:13:35;18.90;99.90
18173;DHT22;9211;48.818;9.312;2023-05-23T01:16:09;18.90;99.90
18173;DHT22;9211;48.818;9.312;2023-05-23T01:18:44;18.90;99.90
18173;DHT22;9211;48.818;9.312;2023-05-23T01:21:16;18.80;99.90
18173;DHT22;9211;48.818;9.312;2023-05-23T01:24:02;18.80;99.90
18173;DHT22;9211;48.818;9.312;2023-05-23T01:26:36;18.80;99.90
18173;DHT22;9211;48.818;9.312;2023-05-23T01:29:12;18.70;99.90
18173;DHT22;9211;48.818;9.312;2023-05-23T01:31:42;18.70;99.90
18173;DHT22;9211;48.818;9.312;2023-05-23T01:34:12;18.70;99.90
18173;DHT22;9211;48.818;9.312;2023-05-23T01:36:40;18.60;99.90
18173;DHT22;9211;48.818;9.312;2023-05-23T01:39:08;18.50;99.90
18173;DHT22;9211;48.818;9.312;2023-05-23T01:41:36;18.60;99.90
18173;DHT22;9211;48.818;9.312;2023-05-23T01:44:04;18.50;99.90
18173;DHT22;9211;48.818;9.312;2023-05-23T01:46:33;18.50;99.90
18173;DHT22;9211;48.818;9.312;2023-05-23T01:49:03;18.50;99.90
18173;DHT22;9211;48.818;9.312;2023-05-23T01:51:32;18.50;99.90
18173;DHT22;9211;48.818;9.312;2023-05-23T01:54:00;18.50;99.90
18173;DHT22;9211;48.818;9.312;2023-05-23T01:56:27;18.50;99.90
18173;DHT22;9211;48.818;9.312;2023-05-23T01:58:55;18.50;99.90
18173;DHT22;9211;48.818;9.312;2023-05-23T02:01:22;18.50;99.90
18173;DHT22;9211;48.818;9.312;2023-05-23T02:03:52;18.40;99.90
18173;DHT22;9211;48.818;9.312;2023-05-23T02:06:19;18.40;99.90
18173;DHT22;9211;48.818;9.312;2023-05-23T02:08:46;18.40;99.90
18173;DHT22;9211;48.818;9.312;2023-05-23T02:11:13;18.40;99.90
18173;DHT22;9211;48.818;9.312;2023-05-23T02:13:40;18.30;99.90
18173;DHT22;9211;48.818;9.312;2023-05-23T02:16:07;18.20;99.90
18173;DHT22;9211;48.818;9.312;2023-05-23T02:18:34;18.20;99.90
18173;DHT22;9211;48.818;9.312;2023-05-23T02:21:04;18.20;99.90
18173;DHT22;9211;48.818;9.312;2023-05-23T02:23:31;18.20;99.90
18173;DHT22;9211;48.818;9.312;2023-05-23T02:25:58;18.10;99.90
18173;DHT22;9211;48.818;9.312;2023-05-23T02:28:25;18.20;99.90
18173;DHT22;9211;48.818;9.312;2023-05-23T02:30:52;18.20;99.90
18173;DHT22;9211;48.818;9.312;2023-05-23T02:33:19;18.10;99.90
18173;DHT22;9211;48.818;9.312;2023-05-23T02:35:46;18.00;99.90
18173;DHT22;9211;48.818;9.312;2023-05-23T02:38:16;18.00;99.90
18173;DHT22;9211;48.818;9.312;2023-05-23T02:40:45;18.00;99.90
18173;DHT22;9211;48.818;9.312;2023-05-23T02:43:12;18.00;99.90
18173;DHT22;9211;48.818;9.312;2023-05-23T02:45:39;18.10;99.90
18173;DHT22;9211;48.818;9.312;2023-05-23T02:48:06;18.10;99.90
18173;DHT22;9211;48.818;9.312;2023-05-23T02:50:33;18.00;99.90
18173;DHT22;9211;48.818;9.312;2023-05-23T02:53:00;18.10;99.90
18173;DHT22;9211;48.818;9.312;2023-05-23T02:55:28;18.10;99.90
18173;DHT22;9211;48.818;9.312;2023-05-23T02:57:56;18.10;99.90
18173;DHT22;9211;48.818;9.312;2023-05-23T03:00:24;18.10;99.90
18173;DHT22;9211;48.818;9.312;2023-05-23T03:02:54;18.10;99.90
18173;DHT22;9211;48.818;9.312;2023-05-23T03:05:21;18.00;99.90
18173;DHT22;9211;48.818;9.312;2023-05-23T03:07:48;18.10;99.90
18173;DHT22;9211;48.818;9.312;2023-05-23T03:10:16;18.00;99.90
18173;DHT22;9211;48.818;9.312;2023-05-23T03:12:45;18.20;99.90
18173;DHT22;9211;48.818;9.312;2023-05-23T03:15:16;18.20;99.90
18173;DHT22;9211;48.818;9.312;2023-05-23T03:17:44;18.20;99.90
18173;DHT22;9211;48.818;9.312;2023-05-23T03:20:14;18.30;99.90
18173;DHT22;9211;48.818;9.312;2023-05-23T03:22:41;18.40;99.90
18173;DHT22;9211;48.818;9.312;2023-05-23T03:25:10;18.30;99.90
18173;DHT22;9211;48.818;9.312;2023-05-23T03:27:36;18.40;99.90
18173;DHT22;9211;48.818;9.312;2023-05-23T03:30:06;18.40;99.90
18173;DHT22;9211;48.818;9.312;2023-05-23T03:32:35;18.30;99.90
18173;DHT22;9211;48.818;9.312;2023-05-23T03:35:02;18.40;99.90
18173;DHT22;9211;48.818;9.312;2023-05-23T03:37:29;18.40;99.90
18173;DHT22;9211;48.818;9.312;2023-05-23T03:39:56;18.30;99.90
18173;DHT22;9211;48.818;9.312;2023-05-23T03:42:23;18.30;99.90
18173;DHT22;9211;48.818;9.312;2023-05-23T03:44:50;18.40;99.90
18173;DHT22;9211;48.818;9.312;2023-05-23T03:47:19;18.40;99.90
18173;DHT22;9211;48.818;9.312;2023-05-23T03:49:46;18.40;99.90
18173;DHT22;9211;48.818;9.312;2023-05-23T03:52:13;18.40;99.90
18173;DHT22;9211;48.818;9.312;2023-05-23T03:54:40;18.40;99.90
18173;DHT22;9211;48.818;9.312;2023-05-23T03:57:08;18.40;99.90
18173;DHT22;9211;48.818;9.312;2023-05-23T03:59:36;18.40;99.90
18173;DHT22;9211;48.818;9.312;2023-05-23T04:02:06;18.40;99.90
18173;DHT22;9211;48.818;9.312;2023-05-23T04:04:36;18.30;99.90
18173;DHT22;9211;48.818;9.312;2023-05-23T04:07:04;18.30;99.90
18173;DHT22;9211;48.818;9.312;2023-05-23T04:09:31;18.40;99.90
18173;DHT22;9211;48.818;9.312;2023-05-23T04:11:59;18.30;99.90
18173;DHT22;9211;48.818;9.312;2023-05-23T04:14:27;18.40;99.90
18173;DHT22;9211;48.818;9.312;2023-05-23T04:16:56;18.30;99.90
18173;DHT22;9211;48.818;9.312;2023-05-23T04:19:23;18.40;99.90
18173;DHT22;9211;48.818;9.312;2023-05-23T04:21:52;18.40;99.90
18173;DHT22;9211;48.818;9.312;2023-05-23T04:24:19;18.30;99.90
18173;DHT22;9211;48.818;9.312;2023-05-23T04:26:46;18.40;99.90
18173;DHT22;9211;48.818;9.312;2023-05-23T04:29:14;18.30;99.90
18173;DHT22;9211;48.818;9.312;2023-05-23T04:31:42;18.30;99.90
18173;DHT22;9211;48.818;9.312;2023-05-23T04:34:10;18.30;99.90
18173;DHT22;9211;48.818;9.312;2023-05-23T04:36:41;18.30;99.90
18173;DHT22;9211;48.818;9.312;2023-05-23T04:39:10;18.30;99.90
18173;DHT22;9211;48.818;9.312;2023-05-23T04:41:46;18.30;99.90
18173;DHT22;9211;48.818;9.312;2023-05-23T04:44:33;18.30;99.90
18173;DHT22;9211;48.818;9.312;2023-05-23T04:47:15;18.40;99.90
18173;DHT22;9211;48.818;9.312;2023-05-23T04:50:05;18.40;99.90
18173;DHT22;9211;48.818;9.312;2023-05-23T04:52:33;18.40;99.90
18173;DHT22;9211;48.818;9.312;2023-05-23T04:55:02;18.40;99.90
18173;DHT22;9211;48.818;9.312;2023-05-23T04:57:29;18.50;99.90
18173;DHT22;9211;48.818;9.312;2023-05-23T04:59:57;18.60;99.90
18173;DHT22;9211;48.818;9.312;2023-05-23T05:02:25;18.60;99.90
18173;DHT22;9211;48.818;9.312;2023-05-23T05:04:52;18.60;99.90
18173;DHT22;9211;48.818;9.312;2023-05-23T05:07:19;18.60;99.90
18173;DHT22;9211;48.818;9.312;2023-05-23T05:09:46;18.60;99.90
18173;DHT22;9211;48.818;9.312;2023-05-23T05:12:15;18.60;99.90
18173;DHT22;9211;48.818;9.312;2023-05-23T05:14:42;18.60;99.90
18173;DHT22;9211;48.818;9.312;2023-05-23T05:17:09;18.60;99.90
18173;DHT22;9211;48.818;9.312;2023-05-23T05:19:48;18.60;99.90
18173;DHT22;9211;48.818;9.312;2023-05-23T05:22:16;18.70;99.90
18173;DHT22;9211;48.818;9.312;2023-05-23T05:24:44;18.70;99.90
18173;DHT22;9211;48.818;9.312;2023-05-23T05:27:11;18.80;99.90
18173;DHT22;9211;48.818;9.312;2023-05-23T05:29:39;18.70;99.90
18173;DHT22;9211;48.818;9.312;2023-05-23T05:32:06;18.80;99.90
18173;DHT22;9211;48.818;9.312;2023-05-23T05:34:34;18.80;99.90
18173;DHT22;9211;48.818;9.312;2023-05-23T05:37:02;18.70;99.90
18173;DHT22;9211;48.818;9.312;2023-05-23T05:39:30;18.80;99.90
18173;DHT22;9211;48.818;9.312;2023-05-23T05:41:57;18.90;99.90
18173;DHT22;9211;48.818;9.312;2023-05-23T05:44:26;18.80;99.90
18173;DHT22;9211;48.818;9.312;2023-05-23T05:46:54;18.80;99.90
18173;DHT22;9211;48.818;9.312;2023-05-23T05:49:21;18.90;99.90
18173;DHT22;9211;48.818;9.312;2023-05-23T05:51:48;18.90;99.90
18173;DHT22;9211;48.818;9.312;2023-05-23T05:54:15;19.00;99.90
18173;DHT22;9211;48.818;9.312;2023-05-23T05:56:42;19.00;99.90
18173;DHT22;9211;48.818;9.312;2023-05-23T05:59:09;19.00;99.90
18173;DHT22;9211;48.818;9.312;2023-05-23T06:01:37;18.90;99.90
18173;DHT22;9211;48.818;9.312;2023-05-23T06:04:06;19.00;99.90
18173;DHT22;9211;48.818;9.312;2023-05-23T06:06:34;19.00;99.90
18173;DHT22;9211;48.818;9.312;2023-05-23T06:09:01;19.00;99.90
18173;DHT22;9211;48.818;9.312;2023-05-23T06:11:28;19.00;99.90
18173;DHT22;9211;48.818;9.312;2023-05-23T06:13:56;19.00;99.90
18173;DHT22;9211;48.818;9.312;2023-05-23T06:16:23;19.00;99.90
18173;DHT22;9211;48.818;9.312;2023-05-23T06:18:50;19.00;99.90
18173;DHT22;9211;48.818;9.312;2023-05-23T06:21:19;19.10;99.90
18173;DHT22;9211;48.818;9.312;2023-05-23T06:23:48;19.10;99.90
18173;DHT22;9211;48.818;9.312;2023-05-23T06:26:15;19.00;99.90
18173;DHT22;9211;48.818;9.312;2023-05-23T06:28:42;19.10;99.90
18173;DHT22;9211;48.818;9.312;2023-05-23T06:31:09;19.00;99.90
18173;DHT22;9211;48.818;9.312;2023-05-23T06:33:36;19.00;99.90
18173;DHT22;9211;48.818;9.312;2023-05-23T06:36:04;19.10;99.90
18173;DHT22;9211;48.818;9.312;2023-05-23T06:38:32;19.10;99.90
18173;DHT22;9211;48.818;9.312;2023-05-23T06:40:59;19.00;99.90
18173;DHT22;9211;48.818;9.312;2023-05-23T06:43:28;19.10;99.90
18173;DHT22;9211;48.818;9.312;2023-05-23T06:46:11;19.00;99.90
18173;DHT22;9211;48.818;9.312;2023-05-23T06:48:38;19.10;99.90
18173;DHT22;9211;48.818;9.312;2023-05-23T06:51:10;19.20;99.90
18173;DHT22;9211;48.818;9.312;2023-05-23T06:53:39;19.20;99.90
18173;DHT22;9211;48.818;9.312;2023-05-23T06:56:06;19.20;99.90
18173;DHT22;9211;48.818;9.312;2023-05-23T06:58:41;19.20;99.90
18173;DHT22;9211;48.818;9.312;2023-05-23T07:01:09;19.30;99.90
18173;DHT22;9211;48.818;9.312;2023-05-23T07:03:41;19.20;99.90
18173;DHT22;9211;48.818;9.312;2023-05-23T07:06:11;19.10;99.90
18173;DHT22;9211;48.818;9.312;2023-05-23T07:08:41;19.20;99.90
18173;DHT22;9211;48.818;9.312;2023-05-23T07:11:08;19.20;99.90
18173;DHT22;9211;48.818;9.312;2023-05-23T07:13:45;19.10;99.90
18173;DHT22;9211;48.818;9.312;2023-05-23T07:16:21;19.00;99.90
18173;DHT22;9211;48.818;9.312;2023-05-23T07:19:00;18.90;99.90
18173;DHT22;9211;48.818;9.312;2023-05-23T07:21:30;18.80;99.90
18173;DHT22;9211;48.818;9.312;2023-05-23T07:23:59;18.90;99.90
18173;DHT22;9211;48.818;9.312;2023-05-23T07:26:27;18.90;99.90
18173;DHT22;9211;48.818;9.312;2023-05-23T07:28:55;19.00;99.90
18173;DHT22;9211;48.818;9.312;2023-05-23T07:31:22;18.90;99.90
18173;DHT22;9211;48.818;9.312;2023-05-23T07:33:52;18.70;99.90
18173;DHT22;9211;48.818;9.312;2023-05-23T07:36:24;18.60;99.90
18173;DHT22;9211;48.818;9.312;2023-05-23T07:38:52;18.50;99.90
18173;DHT22;9211;48.818;9.312;2023-05-23T07:41:21;18.50;99.90
18173;DHT22;9211;48.818;9.312;2023-05-23T07:43:48;18.50;99.90
18173;DHT22;9211;48.818;9.312;2023-05-23T07:46:15;18.50;99.90
18173;DHT22;9211;48.818;9.312;2023-05-23T07:48:43;18.50;99.90
18173;DHT22;9211;48.818;9.312;2023-05-23T07:51:12;18.50;99.90
18173;DHT22;9211;48.818;9.312;2023-05-23T07:53:39;18.50;99.90
18173;DHT22;9211;48.818;9.312;2023-05-23T07:56:09;18.60;99.90
18173;DHT22;9211;48.818;9.312;2023-05-23T07:58:40;18.70;99.90
18173;DHT22;9211;48.818;9.312;2023-05-23T08:01:07;18.70;99.90
18173;DHT22;9211;48.818;9.312;2023-05-23T08:04:13;18.80;99.90
18173;DHT22;9211;48.818;9.312;2023-05-23T08:06:46;18.90;99.90
18173;DHT22;9211;48.818;9.312;2023-05-23T08:09:14;18.90;99.90
18173;DHT22;9211;48.818;9.312;2023-05-23T08:11:47;18.90;99.90
18173;DHT22;9211;48.818;9.312;2023-05-23T08:14:16;19.00;99.90
18173;DHT22;9211;48.818;9.312;2023-05-23T08:16:51;19.10;99.90
18173;DHT22;9211;48.818;9.312;2023-05-23T08:19:22;19.10;99.90
18173;DHT22;9211;48.818;9.312;2023-05-23T08:21:50;19.20;99.90
18173;DHT22;9211;48.818;9.312;2023-05-23T08:24:17;19.20;99.90
18173;DHT22;9211;48.818;9.312;2023-05-23T08:26:45;19.10;99.90
18173;DHT22;9211;48.818;9.312;2023-05-23T08:29:13;19.20;99.90
18173;DHT22;9211;48.818;9.312;2023-05-23T08:31:43;19.10;99.90
18173;DHT22;9211;48.818;9.312;2023-05-23T08:34:11;19.10;99.90
18173;DHT22;9211;48.818;9.312;2023-05-23T08:36:39;19.20;99.90
18173;DHT22;9211;48.818;9.312;2023-05-23T08:39:09;19.30;99.90
18173;DHT22;9211;48.818;9.312;2023-05-23T08:41:42;19.50;99.90
18173;DHT22;9211;48.818;9.312;2023-05-23T08:44:12;19.60;99.90
18173;DHT22;9211;48.818;9.312;2023-05-23T08:46:49;19.60;99.90
18173;DHT22;9211;48.818;9.312;2023-05-23T08:49:41;19.70;99.90
18173;DHT22;9211;48.818;9.312;2023-05-23T08:52:11;19.70;99.90
18173;DHT22;9211;48.818;9.312;2023-05-23T08:54:43;19.70;99.90
18173;DHT22;9211;48.818;9.312;2023-05-23T08:57:13;19.60;99.90
18173;DHT22;9211;48.818;9.312;2023-05-23T08:59:46;19.70;99.90
18173;DHT22;9211;48.818;9.312;2023-05-23T09:02:15;19.70;99.90
18173;DHT22;9211;48.818;9.312;2023-05-23T09:04:44;19.70;99.90
18173;DHT22;9211;48.818;9.312;2023-05-23T09:07:15;19.70;99.90
18173;DHT22;9211;48.818;9.312;2023-05-23T09:09:44;19.70;99.90
18173;DHT22;9211;48.818;9.312;2023-05-23T09:12:13;19.50;99.90
18173;DHT22;9211;48.818;9.312;2023-05-23T09:14:43;19.50;99.90
18173;DHT22;9211;48.818;9.312;2023-05-23T09:17:16;19.40;99.90
18173;DHT22;9211;48.818;9.312;2023-05-23T09:19:45;19.50;99.90
18173;DHT22;9211;48.818;9.312;2023-05-23T09:22:26;19.50;99.90
18173;DHT22;9211;48.818;9.312;2023-05-23T09:25:01;19.40;99.90
18173;DHT22;9211;48.818;9.312;2023-05-23T09:27:28;19.40;99.90
18173;DHT22;9211;48.818;9.312;2023-05-23T09:29:56;19.40;99.90
18173;DHT22;9211;48.818;9.312;2023-05-23T09:32:27;19.30;99.90
18173;DHT22;9211;48.818;9.312;2023-05-23T09:34:55;19.20;99.90
18173;DHT22;9211;48.818;9.312;2023-05-23T09:37:28;19.40;99.90
18173;DHT22;9211;48.818;9.312;2023-05-23T09:39:58;19.40;99.90
18173;DHT22;9211;48.818;9.312;2023-05-23T09:42:31;19.30;99.90
18173;DHT22;9211;48.818;9.312;2023-05-23T09:44:59;19.20;99.90
18173;DHT22;9211;48.818;9.312;2023-05-23T09:47:30;19.10;99.90
18173;DHT22;9211;48.818;9.312;2023-05-23T09:49:57;19.10;99.90
18173;DHT22;9211;48.818;9.312;2023-05-23T09:52:24;19.20;99.90
18173;DHT22;9211;48.818;9.312;2023-05-23T09:54:53;19.20;99.90
18173;DHT22;9211;48.818;9.312;2023-05-23T09:57:21;19.20;99.90
18173;DHT22;9211;48.818;9.312;2023-05-23T09:59:51;19.30;99.90
18173;DHT22;9211;48.818;9.312;2023-05-23T10:05:30;19.20;99.90
18173;DHT22;9211;48.818;9.312;2023-05-23T10:08:01;19.10;99.90
18173;DHT22;9211;48.818;9.312;2023-05-23T10:10:30;19.10;99.90
18173;DHT22;9211;48.818;9.312;2023-05-23T10:13:01;19.10;99.90
18173;DHT22;9211;48.818;9.312;2023-05-23T10:15:34;19.10;99.90
18173;DHT22;9211;48.818;9.312;2023-05-23T10:18:08;19.20;99.90
18173;DHT22;9211;48.818;9.312;2023-05-23T10:20:42;19.30;99.90
18173;DHT22;9211;48.818;9.312;2023-05-23T10:23:13;19.40;99.90
18173;DHT22;9211;48.818;9.312;2023-05-23T10:25:42;19.50;99.90
18173;DHT22;9211;48.818;9.312;2023-05-23T10:28:11;19.50;99.90
18173;DHT22;9211;48.818;9.312;2023-05-23T10:30:39;19.60;99.90
18173;DHT22;9211;48.818;9.312;2023-05-23T10:33:06;19.80;99.90
18173;DHT22;9211;48.818;9.312;2023-05-23T10:35:44;19.70;99.90
18173;DHT22;9211;48.818;9.312;2023-05-23T10:38:24;19.80;99.90
18173;DHT22;9211;48.818;9.312;2023-05-23T10:40:57;19.80;99.90
18173;DHT22;9211;48.818;9.312;2023-05-23T10:43:30;19.90;99.90
18173;DHT22;9211;48.818;9.312;2023-05-23T10:46:00;19.90;99.90
18173;DHT22;9211;48.818;9.312;2023-05-23T10:48:32;20.00;99.90
18173;DHT22;9211;48.818;9.312;2023-05-23T10:51:06;19.90;99.90
18173;DHT22;9211;48.818;9.312;2023-05-23T10:53:35;19.90;99.90
18173;DHT22;9211;48.818;9.312;2023-05-23T10:56:06;19.90;99.90
18173;DHT22;9211;48.818;9.312;2023-05-23T10:58:34;19.90;99.90
18173;DHT22;9211;48.818;9.312;2023-05-23T11:01:04;19.90;99.90
18173;DHT22;9211;48.818;9.312;2023-05-23T11:03:33;20.00;99.90
18173;DHT22;9211;48.818;9.312;2023-05-23T11:06:01;20.00;99.90
18173;DHT22;9211;48.818;9.312;2023-05-23T11:08:37;20.00;99.90
18173;DHT22;9211;48.818;9.312;2023-05-23T11:11:07;20.00;99.90
18173;DHT22;9211;48.818;9.312;2023-05-23T11:13:55;20.00;99.90
18173;DHT22;9211;48.818;9.312;2023-05-23T11:16:28;19.90;99.90
18173;DHT22;9211;48.818;9.312;2023-05-23T11:19:21;20.00;99.90
18173;DHT22;9211;48.818;9.312;2023-05-23T11:21:53;20.00;99.90
18173;DHT22;9211;48.818;9.312;2023-05-23T11:24:22;20.00;99.90
18173;DHT22;9211;48.818;9.312;2023-05-23T11:26:54;20.00;99.90
18173;DHT22;9211;48.818;9.312;2023-05-23T11:29:25;20.10;99.90
18173;DHT22;9211;48.818;9.312;2023-05-23T11:31:53;20.20;99.90
18173;DHT22;9211;48.818;9.312;2023-05-23T11:34:20;20.20;99.90
18173;DHT22;9211;48.818;9.312;2023-05-23T11:36:52;20.20;99.90
18173;DHT22;9211;48.818;9.312;2023-05-23T11:39:19;20.30;99.90
18173;DHT22;9211;48.818;9.312;2023-05-23T11:41:58;20.40;99.90
18173;DHT22;9211;48.818;9.312;2023-05-23T11:44:25;20.40;99.90
18173;DHT22;9211;48.818;9.312;2023-05-23T11:47:01;20.30;99.90
18173;DHT22;9211;48.818;9.312;2023-05-23T11:49:29;20.40;99.90
18173;DHT22;9211;48.818;9.312;2023-05-23T11:51:57;20.40;99.90
18173;DHT22;9211;48.818;9.312;2023-05-23T11:54:24;20.40;99.90
18173;DHT22;9211;48.818;9.312;2023-05-23T11:56:53;20.60;99.90
18173;DHT22;9211;48.818;9.312;2023-05-23T11:59:21;20.60;99.90
18173;DHT22;9211;48.818;9.312;2023-05-23T12:01:54;20.60;99.90
18173;DHT22;9211;48.818;9.312;2023-05-23T12:04:21;20.60;99.90
18173;DHT22;9211;48.818;9.312;2023-05-23T12:06:50;20.60;99.90
18173;DHT22;9211;48.818;9.312;2023-05-23T12:09:17;20.70;99.90
18173;DHT22;9211;48.818;9.312;2023-05-23T12:11:44;20.80;99.90
18173;DHT22;9211;48.818;9.312;2023-05-23T12:14:17;20.90;99.90
18173;DHT22;9211;48.818;9.312;2023-05-23T12:16:45;21.00;99.90
18173;DHT22;9211;48.818;9.312;2023-05-23T12:19:12;21.00;99.90
18173;DHT22;9211;48.818;9.312;2023-05-23T12:21:41;21.00;99.90
18173;DHT22;9211;48.818;9.312;2023-05-23T12:24:16;21.00;99.90
18173;DHT22;9211;48.818;9.312;2023-05-23T12:26:50;20.80;99.90
18173;DHT22;9211;48.818;9.312;2023-05-23T12:29:27;21.00;99.90
18173;DHT22;9211;48.818;9.312;2023-05-23T12:31:57;21.10;99.90
18173;DHT22;9211;48.818;9.312;2023-05-23T12:34:24;21.20;99.90
18173;DHT22;9211;48.818;9.312;2023-05-23T12:36:54;21.20;99.90
18173;DHT22;9211;48.818;9.312;2023-05-23T12:39:23;21.30;99.90
18173;DHT22;9211;48.818;9.312;2023-05-23T12:41:52;21.20;99.90
18173;DHT22;9211;48.818;9.312;2023-05-23T12:44:22;21.20;99.90
18173;DHT22;9211;48.818;9.312;2023-05-23T12:46:49;21.40;99.90
18173;DHT22;9211;48.818;9.312;2023-05-23T12:49:19;21.70;99.90
18173;DHT22;9211;48.818;9.312;2023-05-23T12:51:46;21.80;99.90
18173;DHT22;9211;48.818;9.312;2023-05-23T12:54:13;21.80;99.90
18173;DHT22;9211;48.818;9.312;2023-05-23T12:56:40;21.70;99.90
18173;DHT22;9211;48.818;9.312;2023-05-23T12:59:07;21.60;99.90
18173;DHT22;9211;48.818;9.312;2023-05-23T13:01:35;21.60;99.90
18173;DHT22;9211;48.818;9.312;2023-05-23T13:04:06;21.60;99.90
18173;DHT22;9211;48.818;9.312;2023-05-23T13:06:33;21.60;99.90
18173;DHT22;9211;48.818;9.312;2023-05-23T13:09:00;21.70;99.90
18173;DHT22;9211;48.818;9.312;2023-05-23T13:11:26;21.80;99.90
18173;DHT22;9211;48.818;9.312;2023-05-23T13:13:54;22.10;99.90
18173;DHT22;9211;48.818;9.312;2023-05-23T13:16:21;22.10;99.90
18173;DHT22;9211;48.818;9.312;2023-05-23T13:18:51;22.00;99.90
18173;DHT22;9211;48.818;9.312;2023-05-23T13:21:18;22.00;99.90
18173;DHT22;9211;48.818;9.312;2023-05-23T13:23:45;21.90;99.90
18173;DHT22;9211;48.818;9.312;2023-05-23T13:26:12;21.70;99.90
18173;DHT22;9211;48.818;9.312;2023-05-23T13:28:40;21.60;99.90
18173;DHT22;9211;48.818;9.312;2023-05-23T13:31:07;21.60;99.90
18173;DHT22;9211;48.818;9.312;2023-05-23T13:33:34;21.30;99.90
18173;DHT22;9211;48.818;9.312;2023-05-23T13:36:03;21.10;99.90
18173;DHT22;9211;48.818;9.312;2023-05-23T13:38:30;21.00;99.90
18173;DHT22;9211;48.818;9.312;2023-05-23T13:40:57;21.00;99.90
18173;DHT22;9211;48.818;9.312;2023-05-23T13:43:24;21.00;99.90
18173;DHT22;9211;48.818;9.312;2023-05-23T13:45:51;21.10;99.90
18173;DHT22;9211;48.818;9.312;2023-05-23T13:48:18;21.20;99.90
18173;DHT22;9211;48.818;9.312;2023-05-23T13:50:45;21.30;99.90
18173;DHT22;9211;48.818;9.312;2023-05-23T13:53:13;21.30;99.90
18173;DHT22;9211;48.818;9.312;2023-05-23T13:55:41;21.20;99.90
18173;DHT22;9211;48.818;9.312;2023-05-23T13:58:10;21.30;99.90
18173;DHT22;9211;48.818;9.312;2023-05-23T14:00:37;21.40;99.90
18173;DHT22;9211;48.818;9.312;2023-05-23T14:03:04;21.40;99.90
18173;DHT22;9211;48.818;9.312;2023-05-23T14:05:31;21.30;99.90
18173;DHT22;9211;48.818;9.312;2023-05-23T14:07:58;21.30;99.90
18173;DHT22;9211;48.818;9.312;2023-05-23T14:10:26;21.30;99.90
18173;DHT22;9211;48.818;9.312;2023-05-23T14:12:54;21.40;99.90
18173;DHT22;9211;48.818;9.312;2023-05-23T14:15:21;21.50;99.90
18173;DHT22;9211;48.818;9.312;2023-05-23T14:17:48;21.60;99.90
18173;DHT22;9211;48.818;9.312;2023-05-23T14:20:20;21.60;99.90
18173;DHT22;9211;48.818;9.312;2023-05-23T14:22:47;21.60;99.90
18173;DHT22;9211;48.818;9.312;2023-05-23T14:25:14;21.60;99.90
18173;DHT22;9211;48.818;9.312;2023-05-23T14:27:43;21.80;99.90
18173;DHT22;9211;48.818;9.312;2023-05-23T14:30:10;21.80;99.90
18173;DHT22;9211;48.818;9.312;2023-05-23T14:32:37;21.90;99.90
18173;DHT22;9211;48.818;9.312;2023-05-23T14:35:06;21.90;99.90
18173;DHT22;9211;48.818;9.312;2023-05-23T14:37:33;21.70;99.90
18173;DHT22;9211;48.818;9.312;2023-05-23T14:40:00;21.70;99.90
18173;DHT22;9211;48.818;9.312;2023-05-23T14:42:27;21.90;99.90
18173;DHT22;9211;48.818;9.312;2023-05-23T14:44:56;21.90;99.90
18173;DHT22;9211;48.818;9.312;2023-05-23T14:47:23;21.90;99.90
18173;DHT22;9211;48.818;9.312;2023-05-23T14:49:50;21.90;99.90
18173;DHT22;9211;48.818;9.312;2023-05-23T14:52:17;21.80;99.90
18173;DHT22;9211;48.818;9.312;2023-05-23T14:54:44;22.00;99.90
18173;DHT22;9211;48.818;9.312;2023-05-23T14:57:11;22.10;99.90
18173;DHT22;9211;48.818;9.312;2023-05-23T14:59:38;21.90;99.90
18173;DHT22;9211;48.818;9.312;2023-05-23T15:02:06;22.00;99.90
18173;DHT22;9211;48.818;9.312;2023-05-23T15:04:34;22.00;99.90
18173;DHT22;9211;48.818;9.312;2023-05-23T15:07:01;22.20;99.90
18173;DHT22;9211;48.818;9.312;2023-05-23T15:09:29;22.50;99.90
18173;DHT22;9211;48.818;9.312;2023-05-23T15:11:55;22.60;99.90
18173;DHT22;9211;48.818;9.312;2023-05-23T15:14:23;22.60;99.90
18173;DHT22;9211;48.818;9.312;2023-05-23T15:16:54;22.50;99.90
18173;DHT22;9211;48.818;9.312;2023-05-23T15:19:23;22.40;99.90
18173;DHT22;9211;48.818;9.312;2023-05-23T15:21:50;22.20;99.90
18173;DHT22;9211;48.818;9.312;2023-05-23T15:24:17;22.20;99.90
18173;DHT22;9211;48.818;9.312;2023-05-23T15:26:44;22.10;99.90
18173;DHT22;9211;48.818;9.312;2023-05-23T15:29:11;22.20;99.90
18173;DHT22;9211;48.818;9.312;2023-05-23T15:31:40;22.20;99.90
18173;DHT22;9211;48.818;9.312;2023-05-23T15:34:07;22.30;99.90
18173;DHT22;9211;48.818;9.312;2023-05-23T15:36:35;22.40;99.90
18173;DHT22;9211;48.818;9.312;2023-05-23T15:39:02;22.40;99.90
18173;DHT22;9211;48.818;9.312;2023-05-23T15:41:29;22.20;99.90
18173;DHT22;9211;48.818;9.312;2023-05-23T15:43:56;22.20;99.90
18173;DHT22;9211;48.818;9.312;2023-05-23T15:46:23;22.30;99.90
18173;DHT22;9211;48.818;9.312;2023-05-23T15:48:50;22.30;99.90
18173;DHT22;9211;48.818;9.312;2023-05-23T15:51:17;22.40;99.90
18173;DHT22;9211;48.818;9.312;2023-05-23T15:53:45;22.20;99.90
18173;DHT22;9211;48.818;9.312;2023-05-23T15:56:12;22.20;99.90
18173;DHT22;9211;48.818;9.312;2023-05-23T15:58:40;22.20;99.90
18173;DHT22;9211;48.818;9.312;2023-05-23T16:01:07;22.10;99.90